aviador You're here:

KORF Decoded Metar

NORFOLK in VA, USA
Report Time2018-01-22 19:51:00
UTC Time2018-01-22 20:00:10
Flight Rules vfr VFR
Wind190° at 08 kt
W.Decomp.*RWY 23: 6.9 kt HW 4.1 kt LCW
RWY 14: 4.1 kt HW 6.9 kt RCW
W.Rank190° ranks 7
Current wind is above 190° avg. (7.9)
Visibility9999 m
Phenomena:N/A
Clouds:N/A
Expected CloudBase > 5,600 ft AGL from Temp-Dew spread
CeilingNone
Temp19°C (ISA +4)
Dew Point05°C (40% RH)
AAT15.0°C
QNH1019 hPa
Density Alt446 ft
Elevation46 ft
Report Wrong Elevation
Raw Report
METAR KORF 221951Z 19008KT 10SM CLR 19/05 A3010 RMK AO2 SLP193 T01940050=

Extra information for KORF:More info

Metar Taf Metar & Taf Last 4 Metars F.Rules Stats Wind Profile Meteogram Temp Stats Airport Information Weather charts Add Link Nearby VenuesMetar ALERT Operation Metar Decoded Social comments

AIRNAV info for KORF